Time;durP1;ratioP1;P1;durP2;ratioP2;P2;SDS_P1;SDS_P2;PMS_P1;PMS_P2;Temp;Humidity;BMP_temperature;BMP_pressure;BME280_temperature;BME280_humidity;BME280_pressure;Samples;Min_cycle;Max_cycle;Signal;HPM_P1;HPM_P2
2022/09/04 00:01:16;;;;;;;141.60;113.93;;;26.10;99.90;;;;;;5051003;28;20049;-66
2022/09/04 00:03:54;;;;;;;288.50;257.95;;;26.20;99.90;;;;;;4991419;28;20039;-66
2022/09/04 00:06:28;;;;;;;252.60;225.18;;;26.10;99.90;;;;;;4991600;28;20154;-66
2022/09/04 00:09:04;;;;;;;227.93;202.98;;;26.20;99.90;;;;;;4991599;28;20027;-66
2022/09/04 00:11:47;;;;;;;200.23;178.60;;;26.20;99.90;;;;;;4991577;28;20093;-66
2022/09/04 00:14:19;;;;;;;137.00;109.90;;;26.40;99.90;;;;;;4991594;28;20391;-66
2022/09/04 00:16:50;;;;;;;95.22;62.30;;;26.40;99.90;;;;;;4991920;28;20379;-67
2022/09/04 00:19:32;;;;;;;75.43;53.53;;;26.50;99.90;;;;;;4991876;28;20041;-66
2022/09/04 00:22:01;;;;;;;75.37;48.73;;;26.50;99.90;;;;;;4991919;28;20050;-66
2022/09/04 00:24:41;;;;;;;64.15;44.63;;;26.40;99.90;;;;;;4991694;28;20860;-65
2022/09/04 00:27:24;;;;;;;67.70;43.53;;;26.40;99.90;;;;;;4991448;28;20069;-66
2022/09/04 00:30:00;;;;;;;66.50;47.42;;;26.40;99.90;;;;;;4991567;28;20491;-66
2022/09/04 00:32:40;;;;;;;72.53;50.75;;;26.50;99.90;;;;;;4993676;28;20523;-66
2022/09/04 00:35:08;;;;;;;74.63;48.80;;;26.50;99.90;;;;;;5055837;28;20040;-66
2022/09/04 00:37:47;;;;;;;71.05;54.72;;;26.60;99.90;;;;;;5071813;28;20052;-66
2022/09/04 00:40:34;;;;;;;84.68;54.53;;;26.60;99.90;;;;;;5075355;28;20035;-66
2022/09/04 00:43:22;;;;;;;75.35;48.85;;;26.70;99.90;;;;;;5056976;28;20455;-65
2022/09/04 00:46:00;;;;;;;72.65;50.17;;;26.80;99.90;;;;;;5056496;28;20389;-65
2022/09/04 00:48:57;;;;;;;54.50;38.80;;;26.80;99.90;;;;;;5057717;28;20087;-66
2022/09/04 00:51:54;;;;;;;60.17;41.17;;;26.90;99.90;;;;;;5068508;28;20289;-65
2022/09/04 00:54:23;;;;;;;51.78;39.92;;;27.00;99.90;;;;;;5062070;28;20029;-66
2022/09/04 00:57:12;;;;;;;61.88;39.30;;;27.10;99.90;;;;;;5058991;28;20155;-66
2022/09/04 01:02:31;;;;;;;68.55;42.47;;;27.20;99.90;;;;;;5055339;28;20053;-66
2022/09/04 01:05:19;;;;;;;52.60;37.17;;;27.20;99.90;;;;;;5055999;28;20497;-66
2022/09/04 01:07:59;;;;;;;67.72;46.88;;;27.30;99.90;;;;;;5056230;28;20059;-66
2022/09/04 01:10:47;;;;;;;69.07;44.25;;;27.40;99.90;;;;;;5056214;28;20035;-67
2022/09/04 01:13:23;;;;;;;65.97;38.08;;;27.60;99.90;;;;;;4994224;28;20550;-67
2022/09/04 01:16:25;;;;;;;53.85;36.58;;;27.70;99.90;;;;;;4994684;28;20035;-66
2022/09/04 01:18:58;;;;;;;48.45;34.25;;;27.70;99.90;;;;;;4993891;28;20546;-67
2022/09/04 01:21:56;;;;;;;51.03;34.22;;;27.90;99.90;;;;;;4994687;28;20519;-66
2022/09/04 01:24:34;;;;;;;53.25;37.40;;;28.10;99.90;;;;;;4994561;28;20030;-67
2022/09/04 01:27:07;;;;;;;45.17;32.63;;;28.10;99.90;;;;;;4994490;28;20042;-66
2022/09/04 01:29:43;;;;;;;51.13;36.00;;;28.10;99.90;;;;;;4994852;28;20030;-66
2022/09/04 01:32:40;;;;;;;56.22;36.97;;;28.20;99.90;;;;;;4994162;28;20153;-66
2022/09/04 01:35:35;;;;;;;44.35;31.05;;;28.30;99.90;;;;;;4994483;28;20408;-67
2022/09/04 01:38:42;;;;;;;39.70;28.17;;;28.30;99.90;;;;;;4994054;28;20027;-66
2022/09/04 01:41:31;;;;;;;42.53;27.30;;;28.40;99.90;;;;;;4994004;28;20058;-66
2022/09/04 01:43:58;;;;;;;41.72;27.20;;;28.40;99.90;;;;;;4993834;28;20030;-67
2022/09/04 01:46:34;;;;;;;41.28;27.50;;;28.40;99.90;;;;;;4994031;28;20544;-67
2022/09/04 01:49:01;;;;;;;44.83;28.42;;;28.40;99.90;;;;;;4993681;28;20031;-67
2022/09/04 01:51:38;;;;;;;42.15;25.95;;;28.50;99.90;;;;;;4993727;28;20437;-66
2022/09/04 01:54:12;;;;;;;41.80;25.02;;;28.60;99.90;;;;;;4993781;28;20105;-68
2022/09/04 01:56:58;;;;;;;45.53;27.60;;;28.70;99.90;;;;;;5021952;28;20049;-68
2022/09/04 01:59:39;;;;;;;43.53;27.50;;;28.80;99.90;;;;;;5054785;28;20489;-68
2022/09/04 02:02:21;;;;;;;48.92;29.08;;;28.90;99.90;;;;;;5055844;28;20053;-68
2022/09/04 02:04:58;;;;;;;42.95;27.63;;;28.90;99.90;;;;;;5056093;28;20108;-69
2022/09/04 02:07:45;;;;;;;45.65;27.30;;;29.10;99.90;;;;;;5055877;28;20033;-68
2022/09/04 02:10:34;;;;;;;37.97;26.08;;;29.00;99.90;;;;;;5055711;28;20025;-69
2022/09/04 02:13:13;;;;;;;36.72;23.88;;;29.10;99.90;;;;;;5055569;28;20104;-69
2022/09/04 02:15:58;;;;;;;38.72;25.17;;;29.20;99.90;;;;;;5048453;28;20497;-68
2022/09/04 02:18:30;;;;;;;36.10;22.60;;;29.40;99.90;;;;;;5053093;28;20416;-68
2022/09/04 02:21:22;;;;;;;38.72;24.58;;;29.50;99.90;;;;;;5034441;28;20367;-69
2022/09/04 02:24:12;;;;;;;39.45;23.58;;;29.50;99.90;;;;;;5034998;28;20072;-68
2022/09/04 02:27:01;;;;;;;34.45;23.80;;;29.70;99.90;;;;;;5034671;28;20394;-68
2022/09/04 02:29:57;;;;;;;29.77;19.88;;;29.80;99.90;;;;;;5012647;28;20441;-68
2022/09/04 02:32:35;;;;;;;29.95;20.05;;;29.80;99.90;;;;;;5012438;28;20104;-68
2022/09/04 02:35:08;;;;;;;22.95;15.75;;;29.80;99.90;;;;;;5012658;28;20080;-68
2022/09/04 02:37:46;;;;;;;33.60;18.05;;;29.80;99.90;;;;;;5005773;28;20023;-66
2022/09/04 02:40:27;;;;;;;34.05;16.30;;;30.00;99.90;;;;;;4988042;28;20493;-68
2022/09/04 02:43:20;;;;;;;31.60;18.90;;;30.10;99.90;;;;;;4981174;28;20027;-67
2022/09/04 02:46:11;;;;;;;35.85;20.27;;;30.00;99.90;;;;;;4992395;28;20123;-66
2022/09/04 02:49:06;;;;;;;94.88;72.43;;;30.10;99.90;;;;;;4942684;29;20046;-66
2022/09/04 02:52:03;;;;;;;43.78;28.98;;;30.30;99.90;;;;;;4944465;29;20069;-65
2022/09/04 02:54:49;;;;;;;29.30;20.83;;;30.50;99.90;;;;;;4916541;29;20111;-65
2022/09/04 02:57:18;;;;;;;68.30;50.10;;;30.40;99.90;;;;;;4916010;29;20040;-66
2022/09/04 03:00:03;;;;;;;123.57;93.55;;;30.50;99.90;;;;;;4923487;29;20047;-65
2022/09/04 03:02:50;;;;;;;44.50;27.10;;;30.70;99.90;;;;;;4942977;28;20076;-64
2022/09/04 03:05:25;;;;;;;22.50;16.23;;;30.70;99.90;;;;;;4946617;29;20035;-65
2022/09/04 03:08:14;;;;;;;24.13;16.88;;;30.60;99.90;;;;;;4941605;29;20047;-66
2022/09/04 03:11:16;;;;;;;22.52;16.55;;;30.50;99.90;;;;;;4942247;29;20027;-65
2022/09/04 03:14:23;;;;;;;27.88;15.85;;;30.60;99.90;;;;;;4944252;29;20050;-69
2022/09/04 03:16:55;;;;;;;29.45;16.73;;;30.70;99.90;;;;;;4943060;29;20086;-70
2022/09/04 03:19:28;;;;;;;;;;;30.70;99.90;;;;;;4973736;28;20523;-70
2022/09/04 03:21:57;;;;;;;;;;;30.70;99.90;;;;;;4980689;28;20286;-67
2022/09/04 03:24:30;;;;;;;;;;;30.70;99.90;;;;;;4981342;28;19961;-67
2022/09/04 03:26:59;;;;;;;;;;;30.80;99.90;;;;;;4981033;28;20238;-67
2022/09/04 03:29:31;;;;;;;;;;;30.90;99.90;;;;;;4982141;28;19910;-67
2022/09/04 03:32:17;;;;;;;;;;;31.00;99.90;;;;;;5026392;28;19944;-68
2022/09/04 03:35:03;;;;;;;;;;;31.10;99.90;;;;;;5044162;28;19947;-68
2022/09/04 03:37:30;;;;;;;;;;;31.00;99.90;;;;;;5043545;28;19943;-68
2022/09/04 03:40:06;;;;;;;;;;;31.10;99.90;;;;;;5042356;28;19916;-68
2022/09/04 03:42:33;;;;;;;;;;;31.10;99.90;;;;;;5040516;28;19966;-67
2022/09/04 03:45:08;;;;;;;;;;;31.20;99.90;;;;;;5041566;28;19908;-68
2022/09/04 03:47:35;;;;;;;;;;;31.20;99.90;;;;;;5040774;28;20326;-67
2022/09/04 03:50:21;;;;;;;;;;;31.20;99.90;;;;;;5041746;28;20148;-71
2022/09/04 03:52:56;;;;;;;;;;;31.30;99.90;;;;;;4989381;28;19915;-69
2022/09/04 03:55:22;;;;;;;;;;;31.40;99.90;;;;;;4977431;28;20029;-70
2022/09/04 03:57:48;;;;;;;;;;;31.60;99.90;;;;;;4991063;28;19906;-70
2022/09/04 04:00:18;;;;;;;;;;;31.50;99.90;;;;;;4990561;28;19920;-68
2022/09/04 04:02:44;;;;;;;;;;;31.50;99.90;;;;;;4982027;28;19909;-69
2022/09/04 04:05:15;;;;;;;;;;;31.60;99.90;;;;;;4990655;28;19910;-69
2022/09/04 04:07:46;;;;;;;;;;;31.70;99.90;;;;;;4990794;28;20037;-70
2022/09/04 04:10:32;;;;;;;;;;;31.70;99.90;;;;;;4988549;28;19920;-69
2022/09/04 04:12:59;;;;;;;;;;;31.80;99.90;;;;;;4988170;28;20385;-70
2022/09/04 04:15:44;;;;;;;;;;;31.70;99.90;;;;;;4993500;28;19932;-71
2022/09/04 04:18:17;;;;;;;;;;;31.70;99.90;;;;;;4992156;28;20003;-71
2022/09/04 04:21:03;;;;;;;;;;;31.70;99.90;;;;;;4994460;28;19996;-70
2022/09/04 04:23:47;;;;;;;;;;;31.70;99.90;;;;;;4992372;28;20000;-69
2022/09/04 04:26:39;;;;;;;;;;;31.80;99.90;;;;;;4992962;28;19906;-70
2022/09/04 04:29:24;;;;;;;;;;;31.70;99.90;;;;;;5001891;28;19962;-70
2022/09/04 04:32:09;;;;;;;;;;;31.70;99.90;;;;;;5045586;28;19916;-70
2022/09/04 04:34:46;;;;;;;;;;;31.80;99.90;;;;;;5049298;28;19912;-72
2022/09/04 04:37:16;;;;;;;;;;;32.00;99.90;;;;;;5045192;28;19905;-71
2022/09/04 04:39:48;;;;;;;;;;;32.00;99.90;;;;;;5026755;28;20058;-74
2022/09/04 04:42:23;;;;;;;;;;;32.00;99.00;;;;;;5045431;28;19905;-70
2022/09/04 04:47:44;;;;;;;;;;;32.30;98.90;;;;;;5048470;28;19913;-69
2022/09/04 04:50:20;;;;;;;;;;;32.40;98.50;;;;;;5048879;28;19908;-67
2022/09/04 04:52:49;;;;;;;;;;;32.20;99.20;;;;;;5027239;28;20384;-66
2022/09/04 04:55:20;;;;;;;;;;;32.20;98.20;;;;;;5046002;28;19909;-67
2022/09/04 04:57:48;;;;;;;;;;;32.40;97.40;;;;;;5043451;28;19905;-68
2022/09/04 05:00:18;;;;;;;;;;;32.40;97.60;;;;;;5045811;28;19945;-66
2022/09/04 05:02:52;;;;;;;;;;;32.50;96.30;;;;;;5056600;28;20007;-67
2022/09/04 05:05:25;;;;;;;;;;;32.60;96.50;;;;;;5046213;28;19958;-67
2022/09/04 05:08:02;;;;;;;;;;;32.50;96.90;;;;;;5056967;28;20357;-72
2022/09/04 05:10:48;;;;;;;;;;;32.50;96.20;;;;;;5047848;28;20353;-69
2022/09/04 05:13:15;;;;;;;;;;;32.40;97.20;;;;;;4967177;28;20501;-70
2022/09/04 05:15:43;;;;;;;;;;;32.50;97.00;;;;;;4966663;28;20392;-70
2022/09/04 05:18:15;;;;;;;;;;;32.60;95.80;;;;;;4965251;28;20324;-69
2022/09/04 05:20:47;;;;;;;;;;;32.60;95.90;;;;;;4966274;28;19906;-68
2022/09/04 05:23:20;;;;;;;;;;;32.80;95.30;;;;;;4964893;28;19914;-71
2022/09/04 05:26:07;;;;;;;;;;;32.90;96.00;;;;;;4964506;28;19913;-72
2022/09/04 05:28:53;;;;;;;;;;;32.90;96.00;;;;;;4936052;29;20001;-74
2022/09/04 05:31:31;;;;;;;;;;;33.00;95.70;;;;;;4936059;28;19929;-72
2022/09/04 05:33:57;;;;;;;;;;;33.10;95.10;;;;;;4935940;29;19910;-71
2022/09/04 05:36:43;;;;;;;;;;;33.10;94.50;;;;;;4936132;29;19907;-73
2022/09/04 05:39:11;;;;;;;;;;;33.10;95.40;;;;;;4879926;29;19908;-74
2022/09/04 05:41:38;;;;;;;;;;;33.20;93.90;;;;;;4878614;29;19915;-69
2022/09/04 05:44:05;;;;;;;;;;;33.20;92.90;;;;;;4880043;29;19984;-68
2022/09/04 05:46:31;;;;;;;;;;;33.30;92.20;;;;;;4879951;29;19915;-68
2022/09/04 05:48:58;;;;;;;;;;;33.20;91.20;;;;;;4879741;29;19964;-68
2022/09/04 05:51:24;;;;;;;;;;;33.00;92.20;;;;;;4879668;29;19935;-69
2022/09/04 05:53:52;;;;;;;;;;;33.00;92.20;;;;;;4878499;29;19912;-69
2022/09/04 05:56:29;;;;;;;;;;;32.90;91.80;;;;;;4878670;29;19912;-74
2022/09/04 05:59:03;;;;;;;;;;;32.90;92.00;;;;;;4890769;29;19910;-73
2022/09/04 06:01:31;;;;;;;;;;;32.90;92.50;;;;;;4953314;29;19918;-72
2022/09/04 06:04:07;;;;;;;;;;;32.90;91.10;;;;;;4947139;29;19920;-76
2022/09/04 06:06:53;;;;;;;;;;;32.90;91.80;;;;;;4936464;29;19961;-77
2022/09/04 06:09:19;;;;;;;;;;;32.90;90.70;;;;;;4933770;29;19914;-75
2022/09/04 06:11:48;;;;;;;;;;;32.90;91.10;;;;;;4933669;29;19911;-74
2022/09/04 06:14:15;;;;;;;;;;;33.00;91.20;;;;;;4933934;29;19922;-74
2022/09/04 06:16:49;;;;;;;;;;;33.10;90.80;;;;;;5003681;28;19933;-73
2022/09/04 06:19:15;;;;;;;;;;;33.10;90.50;;;;;;5035401;28;19909;-74
2022/09/04 06:22:01;;;;;;;;;;;33.10;91.40;;;;;;5034929;28;19905;-76
2022/09/04 06:24:29;;;;;;;;;;;33.00;90.70;;;;;;5034383;28;19905;-75
2022/09/04 06:27:15;;;;;;;;;;;33.00;90.90;;;;;;5035122;28;19952;-75
2022/09/04 06:29:50;;;;;;;;;;;33.10;91.60;;;;;;5035326;28;19905;-74
2022/09/04 06:32:17;;;;;;;;;;;33.00;91.90;;;;;;5035056;28;19909;-76
2022/09/04 06:34:44;;;;;;;;;;;33.00;90.00;;;;;;5044028;28;19909;-74
2022/09/04 06:37:24;;;;;;;;;;;32.90;91.20;;;;;;5036297;28;19955;-73
2022/09/04 06:39:56;;;;;;;;;;;32.90;92.00;;;;;;5035003;28;20385;-75
2022/09/04 06:42:25;;;;;;;;;;;32.90;92.00;;;;;;5034493;28;19911;-75
2022/09/04 06:45:02;;;;;;;;;;;33.00;92.10;;;;;;5034571;28;19912;-73
2022/09/04 06:47:48;;;;;;;;;;;32.90;91.20;;;;;;5042843;28;20329;-75
2022/09/04 06:50:18;;;;;;;;;;;32.90;90.80;;;;;;5055024;28;20493;-75
2022/09/04 06:52:59;;;;;;;;;;;32.90;90.10;;;;;;5050928;28;20360;-74
2022/09/04 06:55:27;;;;;;;;;;;32.90;90.10;;;;;;5043074;28;19909;-74
2022/09/04 06:57:55;;;;;;;;;;;33.10;91.80;;;;;;5042434;28;19935;-73
2022/09/04 07:00:21;;;;;;;;;;;33.20;91.70;;;;;;5042890;28;19913;-74
2022/09/04 07:03:05;;;;;;;;;;;33.30;90.60;;;;;;5043261;28;20358;-73
2022/09/04 07:05:33;;;;;;;;;;;33.30;90.60;;;;;;5045070;28;19912;-73
2022/09/04 07:08:08;;;;;;;;;;;33.30;90.80;;;;;;5042910;28;20377;-74
2022/09/04 07:10:39;;;;;;;;;;;33.20;90.30;;;;;;5043149;28;19920;-73
2022/09/04 07:13:14;;;;;;;;;;;33.20;89.20;;;;;;5044168;28;19920;-73
2022/09/04 07:15:51;;;;;;;;;;;33.40;89.80;;;;;;5043310;28;19909;-73
2022/09/04 07:18:18;;;;;;;;;;;33.50;90.70;;;;;;5046488;28;19935;-73
2022/09/04 07:20:46;;;;;;;;;;;33.60;89.70;;;;;;5055062;28;19954;-72
2022/09/04 07:23:21;;;;;;;;;;;33.60;89.40;;;;;;5037224;28;19950;-72
2022/09/04 07:25:59;;;;;;;;;;;33.60;89.50;;;;;;5055110;28;19995;-72
2022/09/04 07:28:28;;;;;;;;;;;33.60;88.90;;;;;;5054370;28;19916;-73
2022/09/04 07:31:10;;;;;;;;;;;33.80;84.80;;;;;;5054139;28;19912;-67
2022/09/04 07:33:38;;;;;;;;;;;33.80;84.30;;;;;;5054746;28;19913;-69
2022/09/04 07:36:06;;;;;;;;;;;33.80;83.90;;;;;;5054167;28;19905;-67
2022/09/04 07:38:52;;;;;;;;;;;33.90;82.10;;;;;;5053894;28;19946;-68
2022/09/04 07:41:27;;;;;;;;;;;33.80;83.00;;;;;;5041212;28;19909;-68
2022/09/04 07:43:56;;;;;;;;;;;33.70;82.10;;;;;;5034203;28;19905;-68
2022/09/04 07:46:28;;;;;;;;;;;33.80;84.50;;;;;;5044961;28;19909;-68
2022/09/04 07:49:04;;;;;;;;;;;33.90;84.80;;;;;;5033635;28;19909;-68
2022/09/04 07:51:38;;;;;;;;;;;33.90;84.30;;;;;;5033876;28;20354;-67
2022/09/04 07:54:25;;;;;;;;;;;34.00;83.70;;;;;;5034027;28;20003;-71
2022/09/04 07:56:53;;;;;;;;;;;34.00;83.40;;;;;;5034801;28;19905;-70
2022/09/04 07:59:20;;;;;;;;;;;34.10;82.50;;;;;;5033810;28;19991;-70
2022/09/04 08:01:58;;;;;;;;;;;34.20;84.60;;;;;;5033534;28;19963;-70
2022/09/04 08:04:42;;;;;;;;;;;34.20;82.20;;;;;;5033802;28;20009;-71
2022/09/04 08:07:13;;;;;;;;;;;34.20;81.20;;;;;;5046767;28;20273;-70
2022/09/04 08:09:47;;;;;;;;;;;34.20;83.10;;;;;;5054062;28;19912;-72
2022/09/04 08:12:13;;;;;;;;;;;34.20;80.40;;;;;;5053613;28;19911;-73
2022/09/04 08:14:41;;;;;;;;;;;34.30;82.80;;;;;;5051958;28;20180;-72
2022/09/04 08:17:27;;;;;;;;;;;34.30;83.60;;;;;;5033675;28;19905;-72
2022/09/04 08:20:04;;;;;;;;;;;34.30;86.70;;;;;;5033229;28;19905;-72
2022/09/04 08:22:41;;;;;;;;;;;34.40;83.60;;;;;;5033207;28;19952;-70
2022/09/04 08:25:09;;;;;;;;;;;34.30;84.80;;;;;;5033342;28;19963;-70
2022/09/04 08:27:55;;;;;;;;;;;34.30;81.70;;;;;;5025774;28;19918;-71
2022/09/04 08:30:21;;;;;;;;;;;34.30;81.70;;;;;;5041261;28;19912;-70
2022/09/04 08:32:51;;;;;;;;;;;34.30;84.50;;;;;;5041814;28;19913;-68
2022/09/04 08:35:27;;;;;;;;;;;34.30;82.90;;;;;;5040974;28;19912;-68
2022/09/04 08:37:53;;;;;;;;;;;34.30;85.20;;;;;;5040910;28;19913;-69
2022/09/04 08:40:40;;;;;;;;;;;34.30;84.90;;;;;;5039850;28;19905;-67
2022/09/04 08:43:21;;;;;;;;;;;34.20;84.20;;;;;;5040091;28;19905;-69
2022/09/04 08:45:51;;;;;;;;;;;34.20;82.50;;;;;;5023796;28;19987;-70
2022/09/04 08:48:19;;;;;;;;;;;34.30;82.20;;;;;;5044822;28;20400;-70
2022/09/04 08:51:04;;;;;;;;;;;34.30;82.80;;;;;;5043566;28;19909;-66
2022/09/04 08:53:39;;;;;;;;;;;34.30;85.70;;;;;;5041955;28;19909;-66
2022/09/04 08:56:15;;;;;;;;;;;34.30;87.30;;;;;;5042131;28;19959;-71
2022/09/04 08:59:01;;;;;;;;;;;34.20;85.50;;;;;;5042339;28;19912;-71
2022/09/04 09:01:38;;;;;;;;;;;34.20;84.50;;;;;;5046525;28;19916;-69
2022/09/04 09:04:18;;;;;;;;;;;34.20;87.10;;;;;;5043669;28;19909;-70
2022/09/04 09:06:46;;;;;;;;;;;34.20;86.70;;;;;;5044041;28;20365;-71
2022/09/04 09:09:26;;;;;;;;;;;34.10;86.40;;;;;;5046780;28;20309;-71
2022/09/04 09:11:54;;;;;;;;;;;34.00;86.30;;;;;;5046683;28;19993;-68
2022/09/04 09:14:23;;;;;;;;;;;33.90;87.60;;;;;;5043576;28;19943;-71
2022/09/04 09:17:01;;;;;;;;;;;33.90;86.40;;;;;;5044892;28;20003;-68
2022/09/04 09:19:32;;;;;;;;;;;33.80;86.40;;;;;;5044304;28;19908;-67
2022/09/04 09:22:00;;;;;;;;;;;33.70;86.50;;;;;;5043912;28;19909;-70
2022/09/04 09:24:30;;;;;;;;;;;33.60;86.60;;;;;;5041666;28;19984;-69
2022/09/04 09:27:06;;;;;;;;;;;33.60;86.40;;;;;;5043717;28;19905;-71
2022/09/04 09:29:34;;;;;;;;;;;33.70;86.70;;;;;;5046051;28;19920;-70
2022/09/04 09:32:20;;;;;;;;;;;33.70;86.80;;;;;;5043995;28;19922;-71
2022/09/04 09:34:47;;;;;;;;;;;33.70;88.20;;;;;;5044603;28;20022;-70
2022/09/04 09:37:14;;;;;;;;;;;33.70;84.90;;;;;;5044646;28;19909;-70
2022/09/04 09:39:41;;;;;;;;;;;33.60;85.40;;;;;;5050393;28;19913;-71
2022/09/04 09:42:08;;;;;;;;;;;33.60;87.60;;;;;;5050199;28;19913;-70
2022/09/04 09:44:43;;;;;;;;;;;33.60;86.30;;;;;;5049905;28;20252;-70
2022/09/04 09:47:29;;;;;;;;;;;33.60;86.30;;;;;;5049818;28;19905;-70
2022/09/04 09:49:59;;;;;;;;;;;33.40;86.80;;;;;;5048450;28;19920;-69
2022/09/04 09:52:45;;;;;;;;;;;33.50;86.80;;;;;;5042247;28;19916;-73
2022/09/04 09:55:11;;;;;;;;;;;33.40;87.10;;;;;;4973921;28;19953;-71
2022/09/04 09:57:57;;;;;;;;;;;33.60;88.30;;;;;;4974688;28;19933;-69
2022/09/04 10:00:26;;;;;;;;;;;33.60;88.90;;;;;;4974642;28;20001;-69
2022/09/04 10:03:13;;;;;;;;;;;33.60;88.80;;;;;;4975082;28;20107;-70
2022/09/04 10:05:39;;;;;;;;;;;33.60;88.80;;;;;;4974916;28;20283;-69
2022/09/04 10:08:14;;;;;;;;;;;33.50;86.00;;;;;;4974555;28;20338;-69
2022/09/04 10:11:00;;;;;;;;;;;33.40;86.20;;;;;;4974599;28;19910;-70
2022/09/04 10:13:35;;;;;;;;;;;33.30;86.00;;;;;;4974685;28;20047;-70
2022/09/04 10:16:01;;;;;;;;;;;33.30;87.20;;;;;;4973914;28;20330;-69
2022/09/04 10:18:31;;;;;;;;;;;33.40;88.70;;;;;;4972102;28;19912;-69
2022/09/04 10:20:59;;;;;;;;;;;33.30;88.00;;;;;;4971506;28;19906;-69
2022/09/04 10:23:36;;;;;;;;;;;33.40;86.70;;;;;;4970844;28;19913;-69
2022/09/04 10:26:13;;;;;;;;;;;33.30;89.70;;;;;;4971410;28;19949;-67
2022/09/04 10:28:47;;;;;;;;;;;33.40;87.50;;;;;;4964886;28;19910;-68
2022/09/04 10:31:33;;;;;;;;;;;33.30;89.20;;;;;;4963937;28;20474;-69
2022/09/04 10:34:09;;;;;;;;;;;33.20;87.90;;;;;;4967594;28;19910;-67
2022/09/04 10:36:36;;;;;;;;;;;33.20;88.10;;;;;;4964321;28;19910;-68
2022/09/04 10:42:03;;;;;;;;;;;33.20;88.10;;;;;;5043355;28;19905;-68
2022/09/04 10:44:36;;;;;;;;;;;33.20;88.70;;;;;;5042327;28;19905;-68
2022/09/04 10:47:04;;;;;;;;;;;33.20;87.10;;;;;;5042725;28;19909;-67
2022/09/04 10:49:34;;;;;;;;;;;33.10;88.70;;;;;;5043581;28;19908;-67
2022/09/04 10:52:09;;;;;;;;;;;33.20;90.10;;;;;;5042777;28;20072;-68
2022/09/04 10:54:43;;;;;;;;;;;33.20;90.00;;;;;;5043064;28;19909;-66
2022/09/04 10:57:29;;;;;;;;;;;33.30;90.80;;;;;;5043294;28;19912;-69
2022/09/04 11:00:15;;;;;;;;;;;33.10;90.50;;;;;;5043626;28;19940;-68
2022/09/04 11:02:42;;;;;;;;;;;33.10;90.40;;;;;;5002518;28;20036;-66
2022/09/04 11:05:17;;;;;;;;;;;33.10;90.70;;;;;;5003034;28;20036;-67
2022/09/04 11:07:45;;;;;;;;;;;33.10;90.10;;;;;;5003792;28;19945;-68
2022/09/04 11:10:11;;;;;;;;;;;33.10;90.20;;;;;;5003679;28;20375;-64
2022/09/04 11:12:48;;;;;;;;;;;33.10;90.00;;;;;;5001933;28;19910;-64
2022/09/04 11:15:23;;;;;;;;;;;33.00;90.30;;;;;;5001106;28;19913;-64
2022/09/04 11:17:49;;;;;;;;;;;33.00;90.60;;;;;;5002050;28;19960;-64
2022/09/04 11:20:16;;;;;;;;;;;33.10;90.90;;;;;;5026815;22;19909;-65
2022/09/04 11:22:42;;;;;;;;;;;33.00;90.90;;;;;;5073003;28;19969;-64
2022/09/04 11:25:28;;;;;;;;;;;33.00;90.80;;;;;;5068906;28;20349;-65
2022/09/04 11:27:58;;;;;;;;;;;33.00;91.10;;;;;;5068097;28;19916;-64
2022/09/04 11:30:33;;;;;;;;;;;32.90;91.90;;;;;;5068773;28;20330;-64
2022/09/04 11:32:59;;;;;;;;;;;32.90;92.30;;;;;;5068959;28;19919;-64
2022/09/04 11:35:28;;;;;;;;;;;32.80;92.50;;;;;;5067743;28;19905;-64
2022/09/04 11:37:58;;;;;;;;;;;32.80;92.10;;;;;;5064431;28;19912;-68
2022/09/04 11:40:44;;;;;;;;;;;32.70;92.40;;;;;;5063203;28;20269;-63
2022/09/04 11:43:12;;;;;;;;;;;32.70;92.40;;;;;;5064122;28;19905;-65
2022/09/04 11:45:40;;;;;;;;;;;32.60;92.40;;;;;;5059410;28;19995;-65
2022/09/04 11:48:08;;;;;;;;;;;32.50;93.00;;;;;;5054565;28;19911;-65
2022/09/04 11:50:39;;;;;;;;;;;32.60;93.60;;;;;;5055013;28;20273;-64
2022/09/04 11:53:25;;;;;;;;;;;32.60;93.30;;;;;;5054783;28;20428;-64
2022/09/04 11:55:53;;;;;;;;;;;32.50;93.50;;;;;;5054690;28;20425;-66
2022/09/04 11:58:39;;;;;;;;;;;32.50;93.30;;;;;;5054336;28;20286;-65
2022/09/04 12:01:16;;;;;;;;;;;32.40;93.30;;;;;;5054385;28;19904;-66
2022/09/04 12:03:48;;;;;;;;;;;32.30;93.50;;;;;;5048783;28;19905;-66
2022/09/04 12:06:35;;;;;;;;;;;32.30;93.40;;;;;;5049327;28;19912;-66
2022/09/04 12:09:21;;;;;;;;;;;32.30;93.60;;;;;;5042980;28;20324;-66
2022/09/04 12:11:58;;;;;;;;;;;32.10;95.50;;;;;;5045093;28;19909;-67
2022/09/04 12:14:35;;;;;;;;;;;31.90;96.70;;;;;;5046550;28;20393;-66
2022/09/04 12:17:22;;;;;;;;;;;31.90;97.20;;;;;;5043932;28;19930;-64
2022/09/04 12:19:49;;;;;;;;;;;31.80;98.20;;;;;;5043313;28;19905;-64
2022/09/04 12:22:16;;;;;;;;;;;31.80;98.90;;;;;;5041333;28;19912;-65
2022/09/04 12:24:43;;;;;;;;;;;31.80;99.00;;;;;;5043700;28;20285;-67
2022/09/04 12:27:10;;;;;;;;;;;31.70;99.30;;;;;;5042836;28;19912;-67
2022/09/04 12:29:37;;;;;;;;;;;31.60;99.80;;;;;;5038644;28;20003;-68
2022/09/04 12:32:05;;;;;;;;;;;31.60;99.90;;;;;;5038534;28;19912;-68
2022/09/04 12:34:35;;;;;;;;;;;31.50;99.90;;;;;;5039520;28;19916;-67
2022/09/04 12:37:11;;;;;;;;;;;31.50;99.90;;;;;;5042752;28;19912;-69
2022/09/04 12:39:57;;;;;;;;;;;31.40;99.90;;;;;;5049872;28;19948;-69
2022/09/04 12:42:31;;;;;;;;;;;31.50;99.90;;;;;;4983083;28;19910;-68
2022/09/04 12:45:14;;;;;;;;;;;31.30;99.90;;;;;;4983400;28;20278;-68
2022/09/04 12:47:44;;;;;;;;;;;31.20;99.90;;;;;;5060851;22;19928;-70
2022/09/04 12:50:17;;;;;;;;;;;31.20;99.90;;;;;;5076202;22;20439;-71
2022/09/04 12:52:58;;;;;;;;;;;31.20;99.90;;;;;;5054603;28;19912;-67
2022/09/04 12:55:33;;;;;;;;;;;31.10;99.90;;;;;;5055110;28;19908;-67
2022/09/04 12:57:59;;;;;;;;;;;31.10;99.90;;;;;;5057507;28;19908;-68
2022/09/04 13:00:32;;;;;;;;;;;31.10;99.90;;;;;;5057578;28;20284;-67
2022/09/04 13:03:00;;;;;;;;;;;31.20;99.90;;;;;;5056585;28;20358;-67
2022/09/04 13:05:27;;;;;;;;;;;31.30;99.90;;;;;;5026964;28;19916;-71
2022/09/04 13:07:58;;;;;;;;;;;31.20;99.90;;;;;;5026842;28;20421;-71
2022/09/04 13:10:34;;;;;;;;;;;31.20;99.90;;;;;;5027840;28;20144;-71
2022/09/04 13:13:20;;;;;;;;;;;31.00;99.90;;;;;;5027826;28;19909;-71
2022/09/04 13:15:48;;;;;;;;;;;31.00;99.90;;;;;;5027441;28;19908;-71
2022/09/04 13:18:14;;;;;;;;;;;30.90;99.90;;;;;;5026828;28;19917;-71
2022/09/04 13:20:50;;;;;;;;;;;30.80;99.90;;;;;;5028103;28;19905;-71
2022/09/04 13:23:22;;;;;;;;;;;30.80;99.90;;;;;;5026840;28;19909;-71
2022/09/04 13:25:53;;;;;;;;;;;30.80;99.90;;;;;;5025229;28;19909;-72
2022/09/04 13:28:25;;;;;;;;;;;30.70;99.90;;;;;;5026055;28;19975;-71
2022/09/04 13:30:58;;;;;;;;;;;30.70;99.90;;;;;;5025982;28;19913;-71
2022/09/04 13:33:38;;;;;;;;;;;30.70;99.90;;;;;;5025954;28;19988;-72
2022/09/04 13:36:15;;;;;;;;;;;30.70;99.90;;;;;;5026528;28;19996;-71
2022/09/04 13:38:54;;;;;;;;;;;30.60;99.90;;;;;;5030652;28;20362;-72
2022/09/04 13:41:20;;;;;;;;;;;30.70;99.90;;;;;;5026908;28;19912;-72
2022/09/04 13:43:46;;;;;;;;;;;30.70;99.90;;;;;;5036292;28;19911;-70
2022/09/04 13:46:17;;;;;;;;;;;30.60;99.90;;;;;;5036224;28;19905;-71
2022/09/04 13:48:43;;;;;;;;;;;30.60;99.90;;;;;;5036700;28;19904;-72
2022/09/04 13:51:10;;;;;;;;;;;30.70;99.90;;;;;;5036447;28;19917;-72
2022/09/04 13:53:45;;;;;;;;;;;30.60;99.90;;;;;;5036591;28;20012;-71
2022/09/04 13:56:18;;;;;;;;;;;30.60;99.90;;;;;;5036554;28;19908;-72
2022/09/04 13:58:50;;;;;;;;;;;30.50;99.90;;;;;;5036411;28;19912;-70
2022/09/04 14:01:20;;;;;;;;;;;30.50;99.90;;;;;;5060309;23;19962;-71
2022/09/04 14:03:47;;;;;;;;;;;30.50;99.90;;;;;;5069207;28;19923;-70
2022/09/04 14:06:14;;;;;;;;;;;30.50;99.90;;;;;;5056127;28;20043;-71
2022/09/04 14:08:42;;;;;;;;;;;30.50;99.90;;;;;;5065583;22;20397;-71
2022/09/04 14:11:19;;;;;;;;;;;30.50;99.90;;;;;;5044176;28;19909;-70
2022/09/04 14:13:50;;;;;;;;;;;30.50;99.90;;;;;;5035911;28;19916;-71
2022/09/04 14:16:17;;;;;;;;;;;30.50;99.90;;;;;;5035420;28;19995;-73
2022/09/04 14:18:50;;;;;;;;;;;30.50;99.90;;;;;;5035663;28;19911;-72
2022/09/04 14:21:17;;;;;;;;;;;30.50;99.90;;;;;;5035590;28;19905;-71
2022/09/04 14:23:51;;;;;;;;;;;30.40;99.90;;;;;;5035383;28;20346;-71
2022/09/04 14:26:26;;;;;;;;;;;30.30;99.90;;;;;;5035558;28;20277;-71
2022/09/04 14:28:52;;;;;;;;;;;30.30;99.90;;;;;;5035548;28;19996;-72
2022/09/04 14:31:38;;;;;;;;;;;30.40;99.90;;;;;;5035577;28;20416;-71
2022/09/04 14:34:04;;;;;;;;;;;30.50;99.90;;;;;;5035958;28;19912;-71
2022/09/04 14:36:34;;;;;;;;;;;30.30;99.90;;;;;;5035883;28;19927;-70
2022/09/04 14:39:00;;;;;;;;;;;30.30;99.90;;;;;;5036005;28;19912;-72
2022/09/04 14:41:30;;;;;;;;;;;30.20;99.90;;;;;;5035797;28;19941;-72
2022/09/04 14:44:05;;;;;;;;;;;30.10;99.90;;;;;;5033904;28;19909;-70
2022/09/04 14:46:33;;;;;;;;;;;30.10;99.90;;;;;;5036251;28;19905;-70